createdAt,value
2022-12-01T00:01:21.779Z,35.30
2022-12-01T00:03:48.694Z,26.25
2022-12-01T00:06:20.964Z,30.45
2022-12-01T00:09:09.259Z,26.63
2022-12-01T00:11:38.187Z,28.33
2022-12-01T00:14:06.045Z,25.90
2022-12-01T00:16:34.401Z,24.98
2022-12-01T00:19:01.382Z,26.08
2022-12-01T00:21:28.736Z,23.13
2022-12-01T00:23:57.534Z,18.27
2022-12-01T00:26:26.074Z,24.58
2022-12-01T00:28:56.468Z,23.17
2022-12-01T00:31:24.445Z,20.38
2022-12-01T00:33:51.738Z,20.00
2022-12-01T00:36:19.044Z,19.17
2022-12-01T00:38:46.651Z,21.05
2022-12-01T00:41:13.925Z,23.05
2022-12-01T00:43:41.423Z,23.75
2022-12-01T00:46:08.360Z,21.85
2022-12-01T00:48:35.373Z,19.27
2022-12-01T00:51:02.152Z,18.27
2022-12-01T00:53:29.252Z,19.10
2022-12-01T00:55:56.237Z,19.20
2022-12-01T00:58:24.426Z,22.35
2022-12-01T01:01:00.312Z,22.67
2022-12-01T01:03:29.517Z,25.02
2022-12-01T01:05:56.748Z,19.73
2022-12-01T01:08:23.614Z,19.85
2022-12-01T01:10:51.228Z,18.05
2022-12-01T01:13:18.545Z,17.75
2022-12-01T01:15:45.494Z,20.02
2022-12-01T01:18:12.927Z,18.23
2022-12-01T01:20:39.836Z,17.70
2022-12-01T01:23:06.872Z,20.90
2022-12-01T01:25:33.936Z,19.67
2022-12-01T01:28:00.813Z,19.30
2022-12-01T01:30:28.023Z,23.48
2022-12-01T01:32:55.098Z,21.42
2022-12-01T01:35:22.214Z,22.83
2022-12-01T01:37:50.962Z,17.77
2022-12-01T01:40:18.751Z,18.25
2022-12-01T01:42:45.621Z,25.10
2022-12-01T01:45:29.423Z,18.58
2022-12-01T01:47:59.656Z,22.42
2022-12-01T01:50:28.726Z,25.42
2022-12-01T01:53:03.792Z,20.17
2022-12-01T01:55:34.303Z,23.27
2022-12-01T01:58:06.851Z,26.67
2022-12-01T02:00:33.810Z,26.05
2022-12-01T02:03:00.841Z,24.13
2022-12-01T02:05:33.025Z,27.50
2022-12-01T02:08:02.550Z,29.70
2022-12-01T02:10:41.412Z,21.70
2022-12-01T02:13:29.910Z,27.50
2022-12-01T02:16:20.530Z,27.27
2022-12-01T02:19:09.830Z,24.50
2022-12-01T02:21:51.490Z,30.88
2022-12-01T02:24:46.061Z,28.55
2022-12-01T02:27:17.853Z,26.13
2022-12-01T02:30:03.197Z,26.70
2022-12-01T02:32:36.122Z,26.17
2022-12-01T02:35:37.274Z,26.58
2022-12-01T02:38:13.861Z,22.77
2022-12-01T02:41:20.678Z,21.98
2022-12-01T02:44:10.343Z,19.77
2022-12-01T02:46:47.664Z,19.70
2022-12-01T02:49:20.957Z,22.65
2022-12-01T02:51:50.665Z,18.10
2022-12-01T02:54:19.240Z,17.42
2022-12-01T02:56:46.436Z,19.73
2022-12-01T02:59:15.204Z,20.05
2022-12-01T03:02:19.007Z,17.42
2022-12-01T03:05:11.089Z,14.32
2022-12-01T03:08:33.825Z,14.57
2022-12-01T03:11:01.901Z,20.15
2022-12-01T03:13:55.812Z,15.25
2022-12-01T03:16:53.276Z,17.48
2022-12-01T03:19:48.618Z,16.88
2022-12-01T03:22:25.871Z,13.65
2022-12-01T03:24:55.914Z,15.77
2022-12-01T03:27:28.938Z,14.10
2022-12-01T03:29:59.147Z,14.07
2022-12-01T03:32:49.496Z,14.10
2022-12-01T03:35:33.685Z,18.70
2022-12-01T03:38:13.259Z,16.50
2022-12-01T03:40:41.563Z,16.10
2022-12-01T03:43:13.682Z,17.90
2022-12-01T03:45:54.245Z,15.60
2022-12-01T03:48:24.227Z,11.65
2022-12-01T03:51:11.047Z,15.65
2022-12-01T03:53:53.161Z,20.27
2022-12-01T03:56:23.636Z,13.18
2022-12-01T03:58:56.014Z,12.60
2022-12-01T04:01:23.029Z,14.07
2022-12-01T04:03:50.015Z,13.43
2022-12-01T04:06:16.845Z,14.65
2022-12-01T04:08:43.609Z,12.55
2022-12-01T04:11:32.615Z,12.45
2022-12-01T04:13:59.897Z,14.07
2022-12-01T04:16:26.932Z,12.88
2022-12-01T04:18:53.923Z,13.57
2022-12-01T04:21:20.765Z,16.55
2022-12-01T04:24:02.930Z,15.63
2022-12-01T04:26:34.665Z,13.73
2022-12-01T04:29:03.839Z,16.45
2022-12-01T04:31:31.303Z,15.40
2022-12-01T04:33:59.476Z,14.52
2022-12-01T04:36:27.738Z,15.25
2022-12-01T04:38:54.669Z,20.63
2022-12-01T04:41:21.572Z,17.80
2022-12-01T04:43:48.417Z,17.70
2022-12-01T04:46:16.061Z,15.23
2022-12-01T04:48:43.603Z,18.88
2022-12-01T04:51:10.798Z,15.25
2022-12-01T04:53:37.745Z,20.70
2022-12-01T04:56:05.344Z,19.10
2022-12-01T04:58:34.028Z,18.95
2022-12-01T05:01:10.459Z,18.90
2022-12-01T05:03:40.063Z,20.70
2022-12-01T05:06:15.643Z,19.60
2022-12-01T05:08:42.688Z,16.27
2022-12-01T05:11:12.165Z,20.70
2022-12-01T05:13:41.516Z,23.10
2022-12-01T05:16:10.570Z,19.42
2022-12-01T05:18:37.676Z,17.55
2022-12-01T05:21:06.779Z,23.23
2022-12-01T05:23:36.297Z,22.67
2022-12-01T05:26:06.027Z,20.40
2022-12-01T05:28:33.211Z,22.55
2022-12-01T05:31:00.527Z,20.88
2022-12-01T05:33:28.883Z,22.70
2022-12-01T05:35:56.126Z,26.75
2022-12-01T05:38:23.116Z,22.42
2022-12-01T05:40:55.167Z,27.52
2022-12-01T05:43:28.599Z,23.95
2022-12-01T05:45:57.510Z,24.20
2022-12-01T05:48:25.594Z,24.17
2022-12-01T05:50:52.541Z,25.30
2022-12-01T05:53:19.749Z,25.25
2022-12-01T05:55:46.844Z,23.23
2022-12-01T05:58:13.998Z,30.00
2022-12-01T06:00:45.694Z,27.48
2022-12-01T06:03:13.815Z,28.40
2022-12-01T06:05:40.986Z,23.48
2022-12-01T06:08:08.214Z,25.20
2022-12-01T06:10:35.196Z,20.83
2022-12-01T06:13:02.423Z,20.85
2022-12-01T06:15:29.322Z,25.10
2022-12-01T06:17:59.501Z,25.67
2022-12-01T06:20:26.542Z,29.02
2022-12-01T06:22:53.639Z,32.78
2022-12-01T06:25:20.618Z,29.90
2022-12-01T06:27:47.636Z,31.88
2022-12-01T06:30:14.715Z,30.33
2022-12-01T06:32:41.586Z,25.70
2022-12-01T06:35:09.013Z,30.80
2022-12-01T06:37:35.932Z,30.55
2022-12-01T06:40:02.776Z,35.58
2022-12-01T06:42:31.552Z,26.95
2022-12-01T06:44:58.462Z,35.28
2022-12-01T06:47:25.231Z,31.40
2022-12-01T06:49:52.252Z,32.63
2022-12-01T06:52:19.329Z,35.42
2022-12-01T06:54:46.154Z,32.08
2022-12-01T06:57:13.287Z,29.83
2022-12-01T06:59:40.173Z,32.95
2022-12-01T07:02:10.609Z,28.98
2022-12-01T07:04:37.689Z,31.63
2022-12-01T07:07:06.264Z,34.25
2022-12-01T07:09:33.455Z,33.05
2022-12-01T07:12:00.365Z,34.53
2022-12-01T07:14:27.812Z,30.20
2022-12-01T07:16:55.006Z,37.78
2022-12-01T07:19:22.220Z,35.35
2022-12-01T07:21:48.991Z,34.22
2022-12-01T07:24:16.407Z,32.80
2022-12-01T07:26:43.912Z,37.17
2022-12-01T07:29:11.811Z,37.47
2022-12-01T07:31:39.132Z,38.20
2022-12-01T07:34:08.880Z,31.15
2022-12-01T07:36:36.028Z,30.70
2022-12-01T07:39:07.653Z,36.85
2022-12-01T07:41:35.812Z,36.90
2022-12-01T07:44:03.043Z,34.42
2022-12-01T07:46:30.203Z,35.85
2022-12-01T07:48:57.447Z,41.60
2022-12-01T07:51:25.967Z,45.38
2022-12-01T07:53:54.646Z,32.78
2022-12-01T07:56:22.737Z,48.40
2022-12-01T07:58:49.681Z,35.35
2022-12-01T08:01:20.448Z,37.55
2022-12-01T08:03:53.626Z,42.92
2022-12-01T08:06:22.153Z,47.10
2022-12-01T08:08:50.055Z,42.63
2022-12-01T08:11:23.919Z,40.83
2022-12-01T08:13:52.316Z,37.25
2022-12-01T08:16:21.749Z,37.42
2022-12-01T08:18:49.323Z,31.83
2022-12-01T08:21:20.175Z,35.80
2022-12-01T08:23:47.856Z,37.67
2022-12-01T08:26:18.273Z,37.17
2022-12-01T08:28:46.092Z,45.10
2022-12-01T08:31:28.542Z,39.20
2022-12-01T08:33:58.711Z,41.10
2022-12-01T08:36:26.252Z,42.33
2022-12-01T08:38:55.876Z,42.00
2022-12-01T08:41:24.605Z,37.08
2022-12-01T08:44:01.653Z,47.58
2022-12-01T08:46:34.426Z,41.38
2022-12-01T08:49:05.565Z,46.20
2022-12-01T08:51:33.135Z,52.97
2022-12-01T08:54:01.837Z,38.45
2022-12-01T08:56:36.448Z,43.10
2022-12-01T08:59:04.226Z,48.72
2022-12-01T09:01:32.933Z,47.10
2022-12-01T09:04:10.992Z,50.25
2022-12-01T09:06:44.795Z,51.15
2022-12-01T09:09:16.400Z,45.25
2022-12-01T09:11:43.989Z,43.53
2022-12-01T09:14:16.200Z,36.60
2022-12-01T09:16:45.321Z,42.58
2022-12-01T09:19:13.780Z,50.22
2022-12-01T09:21:43.455Z,46.17
2022-12-01T09:24:12.883Z,42.97
2022-12-01T09:26:40.248Z,42.33
2022-12-01T09:29:11.181Z,41.47
2022-12-01T09:31:38.218Z,32.85
2022-12-01T09:34:07.951Z,44.25
2022-12-01T09:36:36.798Z,39.00
2022-12-01T09:39:06.459Z,37.60
2022-12-01T09:42:06.124Z,33.20
2022-12-01T09:45:02.661Z,39.28
2022-12-01T09:47:34.459Z,39.13
2022-12-01T09:50:14.291Z,40.35
2022-12-01T09:52:49.542Z,40.15
2022-12-01T09:55:19.900Z,37.65
2022-12-01T09:57:49.998Z,37.47
2022-12-01T10:00:21.920Z,35.30
2022-12-01T10:03:06.677Z,32.90
2022-12-01T10:06:18.435Z,37.85
2022-12-01T10:08:41.766Z,33.95
2022-12-01T10:11:35.779Z,31.52
2022-12-01T10:14:04.757Z,29.88
2022-12-01T10:16:50.371Z,28.30
2022-12-01T10:19:52.524Z,30.27
2022-12-01T10:22:52.775Z,30.92
2022-12-01T10:25:26.773Z,30.17
2022-12-01T10:28:31.668Z,31.60
2022-12-01T10:31:15.488Z,32.65
2022-12-01T10:34:00.227Z,34.75
2022-12-01T10:36:28.787Z,35.75
2022-12-01T10:38:55.692Z,35.42
2022-12-01T10:41:24.162Z,31.20
2022-12-01T10:43:54.581Z,33.40
2022-12-01T10:46:52.787Z,38.28
2022-12-01T10:49:20.442Z,40.90
2022-12-01T10:51:56.860Z,35.83
2022-12-01T10:54:34.244Z,40.88
2022-12-01T10:57:01.974Z,35.00
2022-12-01T10:59:32.870Z,38.38
2022-12-01T11:02:02.156Z,36.88
2022-12-01T11:04:31.670Z,34.90
2022-12-01T11:06:58.621Z,37.28
2022-12-01T11:09:28.647Z,37.70
2022-12-01T11:12:04.570Z,37.60
2022-12-01T11:15:00.714Z,42.97
2022-12-01T11:17:40.460Z,42.80
2022-12-01T11:20:28.113Z,33.53
2022-12-01T11:23:17.461Z,41.80
2022-12-01T11:26:07.512Z,41.90
2022-12-01T11:28:36.117Z,40.92
2022-12-01T11:31:07.438Z,41.28
2022-12-01T11:33:44.933Z,38.78
2022-12-01T11:36:22.405Z,38.60
2022-12-01T11:38:50.580Z,37.13
2022-12-01T11:41:32.511Z,36.03
2022-12-01T11:44:03.937Z,35.83
2022-12-01T11:46:50.223Z,37.22
2022-12-01T11:49:30.076Z,35.00
2022-12-01T11:51:56.955Z,34.78
2022-12-01T11:54:26.275Z,34.22
2022-12-01T11:57:25.358Z,37.63
2022-12-01T11:59:41.885Z,39.15
2022-12-01T12:02:34.355Z,32.97
2022-12-01T12:05:39.182Z,33.88
2022-12-01T12:08:22.887Z,29.23
2022-12-01T12:11:05.482Z,33.58
2022-12-01T12:14:18.785Z,34.53
2022-12-01T12:17:16.760Z,36.07
2022-12-01T12:20:54.793Z,30.88
2022-12-01T12:23:33.224Z,28.80
2022-12-01T12:26:27.820Z,34.25
2022-12-01T12:29:30.617Z,33.53
2022-12-01T12:32:33.096Z,30.48
2022-12-01T12:35:30.345Z,27.75
2022-12-01T12:38:24.791Z,29.88
2022-12-01T12:40:57.011Z,30.55
2022-12-01T12:43:58.697Z,27.53
2022-12-01T12:46:50.252Z,30.00
2022-12-01T12:49:45.047Z,32.20
2022-12-01T12:52:29.289Z,29.30
2022-12-01T12:55:38.929Z,30.02
2022-12-01T12:58:15.857Z,29.90
2022-12-01T13:00:54.221Z,30.58
2022-12-01T13:04:05.427Z,30.75
2022-12-01T13:07:14.026Z,29.75
2022-12-01T13:09:50.987Z,29.38
2022-12-01T13:12:41.564Z,29.15
2022-12-01T13:15:20.474Z,31.20
2022-12-01T13:18:03.678Z,29.83
2022-12-01T13:20:33.322Z,30.33
2022-12-01T13:23:02.865Z,29.40
2022-12-01T13:25:40.463Z,31.80
2022-12-01T13:28:36.140Z,27.42
2022-12-01T13:31:09.794Z,31.85
2022-12-01T13:33:44.306Z,29.27
2022-12-01T13:36:44.975Z,28.90
2022-12-01T13:39:06.192Z,33.22
2022-12-01T13:41:40.116Z,26.75
2022-12-01T13:44:26.996Z,27.10
2022-12-01T13:47:03.822Z,26.13
2022-12-01T13:49:49.839Z,28.10
2022-12-01T13:52:21.215Z,28.88
2022-12-01T13:55:07.389Z,26.17
2022-12-01T13:57:43.419Z,27.65
2022-12-01T14:00:34.624Z,26.92
2022-12-01T14:03:16.649Z,29.23
2022-12-01T14:05:54.126Z,29.45
2022-12-01T14:08:31.596Z,29.17
2022-12-01T14:11:16.532Z,28.60
2022-12-01T14:14:03.401Z,28.90
2022-12-01T14:16:55.444Z,29.15
2022-12-01T14:19:34.553Z,29.65
2022-12-01T14:22:02.593Z,32.47
2022-12-01T14:24:38.536Z,27.55
2022-12-01T14:27:06.557Z,29.92
2022-12-01T14:29:38.495Z,28.85
2022-12-01T14:32:21.365Z,27.80
2022-12-01T14:34:52.589Z,27.90
2022-12-01T14:37:23.724Z,27.10
2022-12-01T14:40:11.190Z,28.48
2022-12-01T14:43:01.882Z,25.50
2022-12-01T14:46:07.074Z,24.30
2022-12-01T14:48:44.662Z,26.30
2022-12-01T14:51:31.960Z,27.73
2022-12-01T14:54:03.241Z,22.25
2022-12-01T14:56:35.055Z,23.80
2022-12-01T14:59:20.403Z,22.02
2022-12-01T15:01:51.413Z,27.77
2022-12-01T15:04:18.882Z,25.83
2022-12-01T15:06:46.442Z,22.73
2022-12-01T15:09:34.479Z,20.88
2022-12-01T15:12:07.638Z,21.08
2022-12-01T15:14:46.995Z,21.60
2022-12-01T15:17:37.005Z,25.02
2022-12-01T15:20:05.560Z,21.65
2022-12-01T15:22:34.613Z,20.35
2022-12-01T15:25:35.263Z,18.60
2022-12-01T15:28:14.793Z,19.77
2022-12-01T15:30:44.528Z,23.35
2022-12-01T15:33:24.102Z,26.88
2022-12-01T15:35:54.521Z,33.70
2022-12-01T15:38:26.311Z,27.20
2022-12-01T15:43:42.429Z,23.35
2022-12-01T15:46:18.375Z,24.98
2022-12-01T15:48:45.755Z,25.00
2022-12-01T15:51:27.372Z,27.20
2022-12-01T15:54:00.151Z,28.80
2022-12-01T15:56:38.444Z,38.17
2022-12-01T15:59:13.827Z,31.67
2022-12-01T16:01:43.797Z,29.60
2022-12-01T16:04:21.339Z,31.63
2022-12-01T16:06:59.789Z,33.88
2022-12-01T16:09:36.091Z,32.70
2022-12-01T16:12:16.451Z,31.38
2022-12-01T16:14:55.661Z,29.17
2022-12-01T16:17:24.252Z,35.30
2022-12-01T16:20:23.314Z,31.52
2022-12-01T16:22:59.077Z,28.58
2022-12-01T16:25:38.201Z,28.85
2022-12-01T16:28:07.352Z,35.80
2022-12-01T16:30:39.399Z,34.28
2022-12-01T16:33:19.289Z,34.47
2022-12-01T16:35:46.257Z,33.17
2022-12-01T16:38:22.855Z,36.83
2022-12-01T16:40:55.906Z,34.03
2022-12-01T16:43:25.879Z,38.85
2022-12-01T16:46:00.804Z,35.65
2022-12-01T16:48:27.866Z,30.63
2022-12-01T16:50:55.595Z,33.90
2022-12-01T16:53:22.601Z,36.95
2022-12-01T16:55:56.180Z,37.97
2022-12-01T16:58:23.439Z,35.92
2022-12-01T17:00:53.873Z,33.70
2022-12-01T17:03:27.107Z,31.70
2022-12-01T17:08:22.469Z,34.80
2022-12-01T17:10:52.742Z,36.45
2022-12-01T17:13:23.303Z,37.22
2022-12-01T17:15:53.991Z,35.55
2022-12-01T17:18:23.492Z,44.45
2022-12-01T17:21:02.444Z,44.70
2022-12-01T17:23:30.147Z,35.13
2022-12-01T17:25:56.948Z,41.70
2022-12-01T17:28:23.917Z,41.30
2022-12-01T17:30:50.869Z,38.67
2022-12-01T17:33:18.118Z,42.38
2022-12-01T17:35:45.029Z,38.75
2022-12-01T17:38:11.963Z,38.90
2022-12-01T17:40:38.872Z,33.17
2022-12-01T17:43:08.341Z,37.33
2022-12-01T17:45:35.291Z,37.30
2022-12-01T17:48:02.081Z,49.40
2022-12-01T17:50:29.110Z,41.95
2022-12-01T17:52:55.991Z,40.65
2022-12-01T17:55:22.882Z,35.78
2022-12-01T17:57:49.732Z,35.58
2022-12-01T18:00:17.258Z,42.58
2022-12-01T18:02:44.523Z,42.20
2022-12-01T18:05:11.524Z,38.97
2022-12-01T18:07:38.582Z,43.97
2022-12-01T18:10:06.165Z,44.17
2022-12-01T18:12:33.222Z,39.90
2022-12-01T18:15:00.119Z,42.78
2022-12-01T18:17:27.156Z,42.08
2022-12-01T18:19:54.025Z,52.53
2022-12-01T18:22:20.891Z,49.90
2022-12-01T18:24:48.141Z,49.50
2022-12-01T18:27:15.361Z,52.75
2022-12-01T18:29:42.194Z,42.20
2022-12-01T18:32:09.293Z,42.58
2022-12-01T18:34:36.130Z,48.25
2022-12-01T18:37:03.531Z,46.65
2022-12-01T18:39:30.548Z,47.90
2022-12-01T18:41:57.888Z,47.30
2022-12-01T18:44:24.837Z,47.83
2022-12-01T18:46:51.822Z,42.42
2022-12-01T18:49:19.115Z,48.10
2022-12-01T18:51:46.000Z,52.70
2022-12-01T18:54:15.375Z,51.97
2022-12-01T18:56:42.384Z,43.08
2022-12-01T18:59:12.603Z,43.53
2022-12-01T19:01:43.922Z,41.15
2022-12-01T19:04:11.539Z,53.55
2022-12-01T19:06:40.378Z,50.35
2022-12-01T19:09:10.215Z,44.35
2022-12-01T19:11:40.389Z,46.20
2022-12-01T19:14:10.272Z,56.67
2022-12-01T19:16:37.160Z,50.70
2022-12-01T19:19:04.334Z,49.03
2022-12-01T19:21:31.293Z,52.75
2022-12-01T19:23:58.105Z,50.97
2022-12-01T19:26:25.951Z,49.83
2022-12-01T19:28:53.065Z,48.58
2022-12-01T19:31:24.861Z,51.30
2022-12-01T19:33:54.036Z,56.42
2022-12-01T19:36:24.077Z,50.05
2022-12-01T19:38:51.295Z,47.92
2022-12-01T19:41:24.232Z,39.03
2022-12-01T19:43:52.713Z,39.72
2022-12-01T19:46:27.036Z,44.58
2022-12-01T19:48:57.711Z,44.10
2022-12-01T19:51:28.770Z,43.05
2022-12-01T19:53:56.752Z,45.38
2022-12-01T19:56:24.408Z,41.70
2022-12-01T19:58:51.481Z,41.00
2022-12-01T20:01:20.343Z,44.10
2022-12-01T20:03:49.861Z,39.38
2022-12-01T20:06:21.571Z,53.47
2022-12-01T20:08:48.705Z,50.45
2022-12-01T20:11:15.718Z,43.67
2022-12-01T20:13:44.902Z,46.72
2022-12-01T20:16:14.553Z,59.42
2022-12-01T20:18:42.311Z,45.40
2022-12-01T20:21:21.656Z,45.88
2022-12-01T20:23:58.101Z,52.10
2022-12-01T20:26:38.636Z,39.83
2022-12-01T20:29:26.581Z,50.13
2022-12-01T20:31:55.721Z,43.28
2022-12-01T20:34:30.643Z,38.17
2022-12-01T20:36:58.093Z,40.70
2022-12-01T20:39:25.332Z,42.83
2022-12-01T20:41:52.237Z,41.47
2022-12-01T20:44:19.309Z,37.75
2022-12-01T20:46:47.438Z,36.08
2022-12-01T20:49:17.181Z,32.85
2022-12-01T20:51:44.709Z,43.40
2022-12-01T20:54:30.390Z,39.47
2022-12-01T20:56:58.423Z,36.25
2022-12-01T20:59:25.419Z,35.65
2022-12-01T21:01:52.258Z,33.13
2022-12-01T21:04:19.199Z,36.15
2022-12-01T21:06:46.591Z,33.22
2022-12-01T21:09:14.973Z,34.35
2022-12-01T21:12:07.638Z,36.15
2022-12-01T21:15:01.744Z,30.88
2022-12-01T21:17:35.781Z,35.63
2022-12-01T21:20:32.199Z,30.42
2022-12-01T21:23:13.481Z,38.45
2022-12-01T21:25:42.589Z,33.20
2022-12-01T21:28:24.072Z,33.92
2022-12-01T21:31:11.298Z,38.95
2022-12-01T21:33:41.347Z,35.28
2022-12-01T21:36:20.315Z,32.90
2022-12-01T21:38:50.763Z,37.13
2022-12-01T21:41:29.707Z,28.92
2022-12-01T21:44:11.106Z,34.67
2022-12-01T21:46:41.249Z,33.15
2022-12-01T21:49:18.682Z,31.85
2022-12-01T21:51:47.803Z,34.08
2022-12-01T21:54:21.017Z,32.67
2022-12-01T21:59:22.328Z,31.33
2022-12-01T22:01:56.564Z,32.00
2022-12-01T22:04:31.456Z,34.72
2022-12-01T22:06:59.288Z,30.20
2022-12-01T22:09:29.717Z,33.08
2022-12-01T22:12:00.322Z,36.47
2022-12-01T22:14:34.870Z,31.83
2022-12-01T22:17:10.502Z,30.02
2022-12-01T22:19:45.395Z,32.15
2022-12-01T22:22:12.163Z,35.78
2022-12-01T22:24:43.015Z,29.80
2022-12-01T22:27:36.008Z,34.38
2022-12-01T22:30:19.786Z,34.08
2022-12-01T22:33:05.635Z,32.28
2022-12-01T22:35:48.374Z,34.92
2022-12-01T22:38:35.062Z,35.28
2022-12-01T22:41:12.057Z,33.70
2022-12-01T22:44:03.818Z,33.58
2022-12-01T22:46:39.907Z,30.02
2022-12-01T22:49:06.901Z,33.72
2022-12-01T22:51:46.797Z,29.70
2022-12-01T22:54:16.631Z,32.30
2022-12-01T22:56:44.822Z,33.33
2022-12-01T22:59:28.408Z,28.25
2022-12-01T23:02:00.624Z,32.55
2022-12-01T23:04:31.137Z,32.70
2022-12-01T23:07:23.292Z,32.78
2022-12-01T23:09:50.221Z,34.03
2022-12-01T23:12:28.755Z,29.65
2022-12-01T23:15:14.128Z,36.08
2022-12-01T23:17:41.137Z,30.83
2022-12-01T23:20:11.029Z,31.65
2022-12-01T23:22:38.886Z,31.35
2022-12-01T23:25:19.957Z,29.70
2022-12-01T23:27:49.749Z,35.88
2022-12-01T23:30:18.705Z,35.30
2022-12-01T23:33:06.929Z,31.88
2022-12-01T23:35:40.720Z,33.35
2022-12-01T23:38:16.033Z,29.25
2022-12-01T23:40:43.169Z,36.72
2022-12-01T23:43:26.899Z,33.42
2022-12-01T23:46:12.907Z,28.17
2022-12-01T23:48:46.227Z,30.50
2022-12-01T23:51:35.353Z,39.28
2022-12-01T23:54:12.532Z,33.28
2022-12-01T23:56:39.423Z,35.20
2022-12-01T23:59:12.885Z,32.67
